createdAt,value
2018-04-22T00:00:02.299Z,0.00
2018-04-22T00:01:02.295Z,0.00
2018-04-22T00:02:02.326Z,0.00
2018-04-22T00:03:02.361Z,0.00
2018-04-22T00:04:02.395Z,0.00
2018-04-22T00:05:02.437Z,0.00
2018-04-22T00:06:02.467Z,0.00
2018-04-22T00:07:02.499Z,0.00
2018-04-22T00:08:02.536Z,0.00
2018-04-22T00:09:02.569Z,0.00
2018-04-22T00:10:02.605Z,0.00
2018-04-22T00:11:02.638Z,0.00
2018-04-22T00:12:02.673Z,0.00
2018-04-22T00:13:02.712Z,0.00
2018-04-22T00:14:02.745Z,0.00
2018-04-22T00:15:02.779Z,0.00
2018-04-22T00:16:02.814Z,0.00
2018-04-22T00:17:02.849Z,0.00
2018-04-22T00:18:02.885Z,0.00
2018-04-22T00:19:02.918Z,0.00
2018-04-22T00:20:02.952Z,0.00
2018-04-22T00:21:02.988Z,0.00
2018-04-22T00:22:03.022Z,0.00
2018-04-22T00:23:03.057Z,0.00
2018-04-22T00:24:03.091Z,0.00
2018-04-22T00:25:03.127Z,0.00
2018-04-22T00:26:03.167Z,0.00
2018-04-22T00:27:03.195Z,0.00
2018-04-22T00:28:03.232Z,0.00
2018-04-22T00:29:03.266Z,0.00
2018-04-22T00:30:03.303Z,0.00
2018-04-22T00:31:03.335Z,0.00
2018-04-22T00:32:03.371Z,0.00
2018-04-22T00:33:03.404Z,0.00
2018-04-22T00:34:03.440Z,0.00
2018-04-22T00:35:03.482Z,0.00
2018-04-22T00:36:03.508Z,0.00
2018-04-22T00:37:03.545Z,0.00
2018-04-22T00:38:03.579Z,0.00
2018-04-22T00:39:03.614Z,0.00
2018-04-22T00:40:03.651Z,0.00
2018-04-22T00:41:03.684Z,0.00
2018-04-22T00:42:03.717Z,0.00
2018-04-22T00:43:03.752Z,0.00
2018-04-22T00:44:03.787Z,0.00
2018-04-22T00:45:03.823Z,0.00
2018-04-22T00:46:03.858Z,0.00
2018-04-22T00:47:03.891Z,0.00
2018-04-22T00:48:03.927Z,0.00
2018-04-22T00:49:03.960Z,0.00
2018-04-22T00:50:03.996Z,0.00
2018-04-22T00:51:04.030Z,0.00
2018-04-22T00:52:04.066Z,0.00
2018-04-22T00:53:04.099Z,0.00
2018-04-22T00:54:04.135Z,0.00
2018-04-22T00:55:04.169Z,0.00
2018-04-22T00:56:04.202Z,0.00
2018-04-22T00:57:04.240Z,0.00
2018-04-22T00:58:04.272Z,0.00
2018-04-22T00:59:04.312Z,0.00
2018-04-22T01:00:04.342Z,0.00
2018-04-22T01:01:04.375Z,0.00
2018-04-22T01:02:04.411Z,0.00
2018-04-22T01:03:04.445Z,0.00
2018-04-22T01:04:04.479Z,0.00
2018-04-22T01:05:04.515Z,0.00
2018-04-22T01:06:04.552Z,0.00
2018-04-22T01:07:04.582Z,0.00
2018-04-22T01:08:04.617Z,0.00
2018-04-22T01:09:04.651Z,0.00
2018-04-22T01:10:04.687Z,0.00
2018-04-22T01:11:04.719Z,0.00
2018-04-22T01:12:04.755Z,0.00
2018-04-22T01:13:04.790Z,0.00
2018-04-22T01:14:04.823Z,0.00
2018-04-22T01:15:04.856Z,0.00
2018-04-22T01:16:04.892Z,0.00
2018-04-22T01:17:04.926Z,0.00
2018-04-22T01:18:04.961Z,0.00
2018-04-22T01:19:04.995Z,0.00
2018-04-22T01:20:05.029Z,0.00
2018-04-22T01:21:05.065Z,0.00
2018-04-22T01:22:05.099Z,0.00
2018-04-22T01:23:05.134Z,0.00
2018-04-22T01:24:05.168Z,0.00
2018-04-22T01:25:05.203Z,0.00
2018-04-22T01:26:05.238Z,0.00
2018-04-22T01:27:05.273Z,0.00
2018-04-22T01:28:05.306Z,0.00
2018-04-22T01:29:05.340Z,0.00
2018-04-22T01:30:05.375Z,0.00
2018-04-22T01:31:05.407Z,0.00
2018-04-22T01:32:05.442Z,0.00
2018-04-22T01:33:05.477Z,0.00
2018-04-22T01:34:05.511Z,0.00
2018-04-22T01:35:05.549Z,0.00
2018-04-22T01:36:05.580Z,0.00
2018-04-22T01:37:05.615Z,0.00
2018-04-22T01:38:05.648Z,0.00
2018-04-22T01:39:05.683Z,0.00
2018-04-22T01:40:05.717Z,0.00
2018-04-22T01:41:05.750Z,0.00
2018-04-22T01:42:05.784Z,0.00
2018-04-22T01:43:05.819Z,0.00
2018-04-22T01:44:05.853Z,0.00
2018-04-22T01:45:05.891Z,0.00
2018-04-22T01:46:05.921Z,0.00
2018-04-22T01:47:05.954Z,0.00
2018-04-22T01:48:05.992Z,0.00
2018-04-22T01:49:06.025Z,0.00
2018-04-22T01:50:06.056Z,0.00
2018-04-22T01:51:06.090Z,0.00
2018-04-22T01:52:06.130Z,0.00
2018-04-22T01:53:06.159Z,0.00
2018-04-22T01:54:06.193Z,0.00
2018-04-22T01:55:06.226Z,0.00
2018-04-22T01:56:06.261Z,0.00
2018-04-22T01:57:06.293Z,0.00
2018-04-22T01:58:06.328Z,0.00
2018-04-22T01:59:06.361Z,0.00
2018-04-22T02:00:06.395Z,0.00
2018-04-22T02:01:06.428Z,0.00
2018-04-22T02:02:06.461Z,0.00
2018-04-22T02:03:06.501Z,0.00
2018-04-22T02:04:06.533Z,0.00
2018-04-22T02:05:06.564Z,0.00
2018-04-22T02:06:06.596Z,0.00
2018-04-22T02:07:06.631Z,0.00
2018-04-22T02:08:06.664Z,0.00
2018-04-22T02:09:06.697Z,0.00
2018-04-22T02:10:06.739Z,0.00
2018-04-22T02:11:06.765Z,0.00
2018-04-22T02:12:06.799Z,0.00
2018-04-22T02:13:06.836Z,0.00
2018-04-22T02:14:06.868Z,0.00
2018-04-22T02:15:06.900Z,0.00
2018-04-22T02:16:06.934Z,0.00
2018-04-22T02:17:06.968Z,0.00
2018-04-22T02:18:07.002Z,0.00
2018-04-22T02:19:07.034Z,0.00
2018-04-22T02:20:07.069Z,0.00
2018-04-22T02:21:07.102Z,0.00
2018-04-22T02:22:07.136Z,0.00
2018-04-22T02:23:07.169Z,0.00
2018-04-22T02:24:07.203Z,0.00
2018-04-22T02:25:07.237Z,0.00
2018-04-22T02:26:07.270Z,0.00
2018-04-22T02:27:07.306Z,0.00
2018-04-22T02:28:07.339Z,0.00
2018-04-22T02:29:07.379Z,0.00
2018-04-22T02:30:07.410Z,0.00
2018-04-22T02:31:07.440Z,0.00
2018-04-22T02:32:07.474Z,0.00
2018-04-22T02:33:07.512Z,0.00
2018-04-22T02:34:07.541Z,0.00
2018-04-22T02:35:07.575Z,0.00
2018-04-22T02:36:07.606Z,0.00
2018-04-22T02:37:07.642Z,0.00
2018-04-22T02:38:07.675Z,0.00
2018-04-22T02:39:07.707Z,0.00
2018-04-22T02:40:07.740Z,0.00
2018-04-22T02:41:07.774Z,0.00
2018-04-22T02:42:07.808Z,0.00
2018-04-22T02:43:07.841Z,0.00
2018-04-22T02:44:07.880Z,0.00
2018-04-22T02:45:07.910Z,0.00
2018-04-22T02:46:07.947Z,0.00
2018-04-22T02:47:07.976Z,0.00
2018-04-22T02:48:08.009Z,0.00
2018-04-22T02:49:08.044Z,0.00
2018-04-22T02:50:08.078Z,0.00
2018-04-22T02:51:08.111Z,0.00
2018-04-22T02:52:08.143Z,0.00
2018-04-22T02:53:08.181Z,0.00
2018-04-22T02:54:08.212Z,0.00
2018-04-22T02:55:08.249Z,0.00
2018-04-22T02:56:08.279Z,0.00
2018-04-22T02:57:08.311Z,0.00
2018-04-22T02:58:08.346Z,0.00
2018-04-22T02:59:08.378Z,0.00
2018-04-22T03:00:08.411Z,0.00
2018-04-22T03:01:08.447Z,0.00
2018-04-22T03:02:08.480Z,0.00
2018-04-22T03:03:08.513Z,0.00
2018-04-22T03:04:08.547Z,0.00
2018-04-22T03:05:08.581Z,0.00
2018-04-22T03:06:08.619Z,0.00
2018-04-22T03:07:08.647Z,0.00
2018-04-22T03:08:08.681Z,0.00
2018-04-22T03:09:08.714Z,0.00
2018-04-22T03:10:08.747Z,0.00
2018-04-22T03:11:08.780Z,0.00
2018-04-22T03:12:08.813Z,0.00
2018-04-22T03:13:08.846Z,0.00
2018-04-22T03:14:08.882Z,0.00
2018-04-22T03:15:08.918Z,0.00
2018-04-22T03:16:08.950Z,0.00
2018-04-22T03:17:08.982Z,0.00
2018-04-22T03:18:09.014Z,0.00
2018-04-22T03:19:09.048Z,0.00
2018-04-22T03:20:09.083Z,0.00
2018-04-22T03:21:09.115Z,0.00
2018-04-22T03:22:09.150Z,0.00
2018-04-22T03:23:09.181Z,0.00
2018-04-22T03:24:09.214Z,0.00
2018-04-22T03:25:09.249Z,0.00
2018-04-22T03:26:09.286Z,0.00
2018-04-22T03:27:09.315Z,0.00
2018-04-22T03:28:09.349Z,0.00
2018-04-22T03:29:09.382Z,0.00
2018-04-22T03:30:09.416Z,0.00
2018-04-22T03:31:09.451Z,0.00
2018-04-22T03:32:09.482Z,0.00
2018-04-22T03:33:09.515Z,0.00
2018-04-22T03:34:09.551Z,0.00
2018-04-22T03:35:09.585Z,0.00
2018-04-22T03:36:09.617Z,0.00
2018-04-22T03:37:09.649Z,0.00
2018-04-22T03:38:09.686Z,0.00
2018-04-22T03:39:09.717Z,0.00
2018-04-22T03:40:09.750Z,0.00
2018-04-22T03:41:09.783Z,0.00
2018-04-22T03:42:09.816Z,0.00
2018-04-22T03:43:09.850Z,0.00
2018-04-22T03:44:09.883Z,0.00
2018-04-22T03:45:09.916Z,0.00
2018-04-22T03:46:09.949Z,0.00
2018-04-22T03:47:09.983Z,0.00
2018-04-22T03:48:10.017Z,0.00
2018-04-22T03:49:10.051Z,0.00
2018-04-22T03:50:10.084Z,0.00
2018-04-22T03:51:10.116Z,0.00
2018-04-22T03:52:10.150Z,0.00
2018-04-22T03:53:10.183Z,0.00
2018-04-22T03:54:10.218Z,0.00
2018-04-22T03:55:10.250Z,0.00
2018-04-22T03:56:10.283Z,0.00
2018-04-22T03:57:10.317Z,0.00
2018-04-22T03:58:10.350Z,0.00
2018-04-22T03:59:10.391Z,0.00
2018-04-22T04:00:10.416Z,0.00
2018-04-22T04:01:10.449Z,0.00
2018-04-22T04:02:10.483Z,0.00
2018-04-22T04:03:10.515Z,0.00
2018-04-22T04:04:10.548Z,0.00
2018-04-22T04:05:10.585Z,0.00
2018-04-22T04:06:10.618Z,0.00
2018-04-22T04:07:10.647Z,0.00
2018-04-22T04:08:10.681Z,0.00
2018-04-22T04:09:10.713Z,0.00
2018-04-22T04:10:10.747Z,0.00
2018-04-22T04:11:10.779Z,0.00
2018-04-22T04:12:10.813Z,0.00
2018-04-22T04:13:10.846Z,0.00
2018-04-22T04:14:10.879Z,0.00
2018-04-22T04:15:10.911Z,0.00
2018-04-22T04:16:10.945Z,0.00
2018-04-22T04:17:10.978Z,0.00
2018-04-22T04:18:11.010Z,0.00
2018-04-22T04:19:11.043Z,0.00
2018-04-22T04:20:11.076Z,0.00
2018-04-22T04:21:11.109Z,0.00
2018-04-22T04:22:11.142Z,5.63
2018-04-22T04:23:11.175Z,5.63
2018-04-22T04:24:11.208Z,5.63
2018-04-22T04:25:11.242Z,5.63
2018-04-22T04:26:11.274Z,5.63
2018-04-22T04:27:11.305Z,5.63
2018-04-22T04:28:11.340Z,5.63
2018-04-22T04:29:11.372Z,11.25
2018-04-22T04:30:11.405Z,11.25
2018-04-22T04:31:11.438Z,11.25
2018-04-22T04:32:11.471Z,11.25
2018-04-22T04:33:11.504Z,11.25
2018-04-22T04:34:11.537Z,16.88
2018-04-22T04:35:11.574Z,16.88
2018-04-22T04:36:11.602Z,16.88
2018-04-22T04:37:11.636Z,16.88
2018-04-22T04:38:11.669Z,16.88
2018-04-22T04:39:11.701Z,22.50
2018-04-22T04:40:11.733Z,22.50
2018-04-22T04:41:11.768Z,22.50
2018-04-22T04:42:11.800Z,22.50
2018-04-22T04:43:11.831Z,28.13
2018-04-22T04:44:11.869Z,28.13
2018-04-22T04:45:11.899Z,28.13
2018-04-22T04:46:11.932Z,28.13
2018-04-22T04:47:11.965Z,33.75
2018-04-22T04:48:12.001Z,33.75
2018-04-22T04:49:12.031Z,33.75
2018-04-22T04:50:12.063Z,33.75
2018-04-22T04:51:12.096Z,39.38
2018-04-22T04:52:12.129Z,39.38
2018-04-22T04:53:12.163Z,39.38
2018-04-22T04:54:12.196Z,39.38
2018-04-22T04:55:12.228Z,45.00
2018-04-22T04:56:12.259Z,45.00
2018-04-22T04:57:12.295Z,45.00
2018-04-22T04:58:12.329Z,50.63
2018-04-22T04:59:12.360Z,50.63
2018-04-22T05:00:12.442Z,50.63
2018-04-22T05:01:12.427Z,50.63
2018-04-22T05:02:12.461Z,56.25
2018-04-22T05:03:12.492Z,56.25
2018-04-22T05:04:12.525Z,56.25
2018-04-22T05:05:12.562Z,61.88
2018-04-22T05:06:12.593Z,61.88
2018-04-22T05:07:12.623Z,61.88
2018-04-22T05:08:12.657Z,61.88
2018-04-22T05:09:12.691Z,67.50
2018-04-22T05:10:12.725Z,67.50
2018-04-22T05:11:12.757Z,67.50
2018-04-22T05:12:12.789Z,73.13
2018-04-22T05:13:12.822Z,73.13
2018-04-22T05:14:12.857Z,73.13
2018-04-22T05:15:12.891Z,73.13
2018-04-22T05:16:12.921Z,78.75
2018-04-22T05:17:12.956Z,78.75
2018-04-22T05:18:12.988Z,78.75
2018-04-22T05:19:13.021Z,78.75
2018-04-22T05:20:13.057Z,78.75
2018-04-22T05:21:13.088Z,84.38
2018-04-22T05:22:13.122Z,84.38
2018-04-22T05:23:13.154Z,90.00
2018-04-22T05:24:13.197Z,90.00
2018-04-22T05:25:13.232Z,95.63
2018-04-22T05:26:13.254Z,95.63
2018-04-22T05:27:13.286Z,95.63
2018-04-22T05:28:13.320Z,95.63
2018-04-22T05:29:13.354Z,95.63
2018-04-22T05:30:13.387Z,101.25
2018-04-22T05:31:13.435Z,101.25
2018-04-22T05:32:13.456Z,101.25
2018-04-22T05:33:13.486Z,101.25
2018-04-22T05:34:13.520Z,112.50
2018-04-22T05:35:13.553Z,106.88
2018-04-22T05:36:13.592Z,106.88
2018-04-22T05:37:13.623Z,106.88
2018-04-22T05:38:13.657Z,112.50
2018-04-22T05:39:13.686Z,112.50
2018-04-22T05:40:13.721Z,112.50
2018-04-22T05:41:13.753Z,112.50
2018-04-22T05:42:13.788Z,118.13
2018-04-22T05:43:13.820Z,118.13
2018-04-22T05:44:13.867Z,118.13
2018-04-22T05:45:13.888Z,118.13
2018-04-22T05:46:13.922Z,123.75
2018-04-22T05:47:13.955Z,123.75
2018-04-22T05:48:13.989Z,123.75
2018-04-22T05:49:14.023Z,123.75
2018-04-22T05:50:14.056Z,123.75
2018-04-22T05:51:14.090Z,129.38
2018-04-22T05:52:14.122Z,135.00
2018-04-22T05:53:14.157Z,129.38
2018-04-22T05:54:14.190Z,129.38
2018-04-22T05:55:14.226Z,135.00
2018-04-22T05:56:14.257Z,135.00
2018-04-22T05:57:14.293Z,135.00
2018-04-22T05:58:14.327Z,135.00
2018-04-22T05:59:14.360Z,140.63
2018-04-22T06:00:14.394Z,140.63
2018-04-22T06:01:14.429Z,140.63
2018-04-22T06:02:14.477Z,140.63
2018-04-22T06:03:14.496Z,140.63
2018-04-22T06:04:14.530Z,140.63
2018-04-22T06:05:14.564Z,146.25
2018-04-22T06:06:14.599Z,146.25
2018-04-22T06:07:14.632Z,146.25
2018-04-22T06:08:14.667Z,151.88
2018-04-22T06:09:14.706Z,146.25
2018-04-22T06:10:14.736Z,151.88
2018-04-22T06:11:14.773Z,151.88
2018-04-22T06:12:14.803Z,151.88
2018-04-22T06:13:14.837Z,151.88
2018-04-22T06:14:14.876Z,157.50
2018-04-22T06:15:14.906Z,157.50
2018-04-22T06:16:14.948Z,163.13
2018-04-22T06:17:14.978Z,163.13
2018-04-22T06:18:15.012Z,168.75
2018-04-22T06:19:15.044Z,174.38
2018-04-22T06:20:15.083Z,180.00
2018-04-22T06:21:15.114Z,185.63
2018-04-22T06:22:15.150Z,191.25
2018-04-22T06:23:15.188Z,191.25
2018-04-22T06:24:15.218Z,191.25
2018-04-22T06:25:15.253Z,191.25
2018-04-22T06:26:15.289Z,196.88
2018-04-22T06:27:15.323Z,196.88
2018-04-22T06:28:15.385Z,196.88
2018-04-22T06:29:15.394Z,191.25
2018-04-22T06:30:15.432Z,191.25
2018-04-22T06:31:15.463Z,185.63
2018-04-22T06:32:15.505Z,185.63
2018-04-22T06:33:15.534Z,185.63
2018-04-22T06:34:15.570Z,185.63
2018-04-22T06:35:15.604Z,185.63
2018-04-22T06:36:15.640Z,185.63
2018-04-22T06:37:15.681Z,185.63
2018-04-22T06:38:15.714Z,191.25
2018-04-22T06:39:15.746Z,191.25
2018-04-22T06:40:15.799Z,191.25
2018-04-22T06:41:15.817Z,191.25
2018-04-22T06:42:15.854Z,191.25
2018-04-22T06:43:15.888Z,191.25
2018-04-22T06:44:15.925Z,196.88
2018-04-22T06:45:15.961Z,191.25
2018-04-22T06:46:16.004Z,196.88
2018-04-22T06:47:16.032Z,202.50
2018-04-22T06:48:16.068Z,202.50
2018-04-22T06:49:16.104Z,202.50
2018-04-22T06:50:16.140Z,202.50
2018-04-22T06:51:16.175Z,202.50
2018-04-22T06:52:16.212Z,202.50
2018-04-22T06:53:16.277Z,208.13
2018-04-22T06:54:16.285Z,208.13
2018-04-22T06:55:16.333Z,208.13
2018-04-22T06:56:16.356Z,213.75
2018-04-22T06:57:16.393Z,213.75
2018-04-22T06:58:16.430Z,213.75
2018-04-22T06:59:16.465Z,219.38
2018-04-22T07:00:16.502Z,219.38
2018-04-22T07:01:16.537Z,225.00
2018-04-22T07:02:16.575Z,225.00
2018-04-22T07:03:16.614Z,230.63
2018-04-22T07:04:16.648Z,230.63
2018-04-22T07:05:16.684Z,230.63
2018-04-22T07:06:16.723Z,230.63
2018-04-22T07:07:16.759Z,230.63
2018-04-22T07:08:16.795Z,230.63
2018-04-22T07:09:16.833Z,236.25
2018-04-22T07:10:16.870Z,236.25
2018-04-22T07:11:16.906Z,236.25
2018-04-22T07:12:16.942Z,241.88
2018-04-22T07:13:16.981Z,241.88
2018-04-22T07:14:17.019Z,241.88
2018-04-22T07:15:17.054Z,241.88
2018-04-22T07:16:17.098Z,241.88
2018-04-22T07:17:17.130Z,247.50
2018-04-22T07:18:17.168Z,247.50
2018-04-22T07:19:17.204Z,247.50
2018-04-22T07:20:17.245Z,253.13
2018-04-22T07:21:17.280Z,253.13
2018-04-22T07:22:17.318Z,253.13
2018-04-22T07:23:17.354Z,253.13
2018-04-22T07:24:17.448Z,253.13
2018-04-22T07:25:17.429Z,258.75
2018-04-22T07:26:17.468Z,258.75
2018-04-22T07:27:17.506Z,258.75
2018-04-22T07:28:17.544Z,264.38
2018-04-22T07:29:17.608Z,264.38
2018-04-22T07:30:17.621Z,264.38
2018-04-22T07:31:17.659Z,270.00
2018-04-22T07:32:17.697Z,270.00
2018-04-22T07:33:17.735Z,275.63
2018-04-22T07:34:17.773Z,275.63
2018-04-22T07:35:17.814Z,281.25
2018-04-22T07:36:17.878Z,281.25
2018-04-22T07:37:17.893Z,281.25
2018-04-22T07:38:17.955Z,286.88
2018-04-22T07:39:17.965Z,286.88
2018-04-22T07:40:18.003Z,286.88
2018-04-22T07:41:18.043Z,286.88
2018-04-22T07:42:18.115Z,292.50
2018-04-22T07:43:18.120Z,298.13
2018-04-22T07:44:18.165Z,298.13
2018-04-22T07:45:18.198Z,298.13
2018-04-22T07:46:18.240Z,298.13
2018-04-22T07:47:18.275Z,298.13
2018-04-22T07:48:18.315Z,303.75
2018-04-22T07:49:18.355Z,309.38
2018-04-22T07:50:18.394Z,309.38
2018-04-22T07:51:18.432Z,309.38
2018-04-22T07:52:18.473Z,309.38
2018-04-22T07:53:18.513Z,309.38
2018-04-22T07:54:18.551Z,315.00
2018-04-22T07:55:18.590Z,315.00
2018-04-22T07:56:18.630Z,315.00
2018-04-22T07:57:18.670Z,315.00
2018-04-22T07:58:18.713Z,320.63
2018-04-22T07:59:18.749Z,315.00
2018-04-22T08:00:18.794Z,320.63
2018-04-22T08:01:18.829Z,326.25
2018-04-22T08:02:18.873Z,326.25
2018-04-22T08:03:18.909Z,326.25
2018-04-22T08:04:18.949Z,326.25
2018-04-22T08:05:18.989Z,320.63
2018-04-22T08:06:19.028Z,320.63
2018-04-22T08:07:19.072Z,320.63
2018-04-22T08:08:19.110Z,320.63
2018-04-22T08:09:19.151Z,326.25
2018-04-22T08:10:19.191Z,331.88
2018-04-22T08:11:19.232Z,331.88
2018-04-22T08:12:19.273Z,337.50
2018-04-22T08:13:19.319Z,337.50
2018-04-22T08:14:19.354Z,337.50
2018-04-22T08:15:19.394Z,337.50
2018-04-22T08:16:19.496Z,348.75
2018-04-22T08:17:19.477Z,343.13
2018-04-22T08:18:19.518Z,354.38
2018-04-22T08:19:19.559Z,360.00
2018-04-22T08:20:19.599Z,360.00
2018-04-22T08:21:19.642Z,360.00
2018-04-22T08:22:19.683Z,365.63
2018-04-22T08:23:19.733Z,365.63
2018-04-22T08:24:19.776Z,365.63
2018-04-22T08:25:19.808Z,365.63
2018-04-22T08:26:19.849Z,371.25
2018-04-22T08:27:19.889Z,371.25
2018-04-22T08:28:19.990Z,371.25
2018-04-22T08:29:19.975Z,371.25
2018-04-22T08:30:20.017Z,376.88
2018-04-22T08:31:20.059Z,376.88
2018-04-22T08:32:20.101Z,382.50
2018-04-22T08:33:20.180Z,382.50
2018-04-22T08:34:20.185Z,382.50
2018-04-22T08:35:20.227Z,388.13
2018-04-22T08:36:20.270Z,393.75
2018-04-22T08:37:20.312Z,393.75
2018-04-22T08:38:20.391Z,393.75
2018-04-22T08:39:20.396Z,399.38
2018-04-22T08:40:20.440Z,405.00
2018-04-22T08:41:20.483Z,405.00
2018-04-22T08:42:20.526Z,405.00
2018-04-22T08:43:20.572Z,410.63
2018-04-22T08:44:20.611Z,405.00
2018-04-22T08:45:20.655Z,410.63
2018-04-22T08:46:20.697Z,410.63
2018-04-22T08:47:20.740Z,410.63
2018-04-22T08:48:20.783Z,410.63
2018-04-22T08:49:20.826Z,416.25
2018-04-22T08:50:20.870Z,416.25
2018-04-22T08:51:20.912Z,416.25
2018-04-22T08:52:20.956Z,416.25
2018-04-22T08:53:21.005Z,421.88
2018-04-22T08:54:21.050Z,421.88
2018-04-22T08:55:21.087Z,427.50
2018-04-22T08:56:21.130Z,421.88
2018-04-22T08:57:21.173Z,427.50
2018-04-22T08:58:21.223Z,427.50
2018-04-22T08:59:21.260Z,427.50
2018-04-22T09:00:21.304Z,421.88
2018-04-22T09:01:21.350Z,410.63
2018-04-22T09:02:21.393Z,427.50
2018-04-22T09:03:21.436Z,433.13
2018-04-22T09:04:21.480Z,438.75
2018-04-22T09:05:21.524Z,438.75
2018-04-22T09:06:21.569Z,444.38
2018-04-22T09:07:21.612Z,444.38
2018-04-22T09:08:21.656Z,444.38
2018-04-22T09:09:21.699Z,444.38
2018-04-22T09:10:21.745Z,438.75
2018-04-22T09:11:21.789Z,438.75
2018-04-22T09:12:21.833Z,455.63
2018-04-22T09:13:21.881Z,450.00
2018-04-22T09:14:21.923Z,455.63
2018-04-22T09:15:21.966Z,455.63
2018-04-22T09:16:22.046Z,455.63
2018-04-22T09:17:22.056Z,461.25
2018-04-22T09:18:22.101Z,461.25
2018-04-22T09:19:22.144Z,461.25
2018-04-22T09:20:22.190Z,461.25
2018-04-22T09:21:22.235Z,466.88
2018-04-22T09:22:22.280Z,461.25
2018-04-22T09:23:22.324Z,461.25
2018-04-22T09:24:22.369Z,472.50
2018-04-22T09:25:22.419Z,466.88
2018-04-22T09:26:22.460Z,466.88
2018-04-22T09:27:22.504Z,472.50
2018-04-22T09:28:22.549Z,478.13
2018-04-22T09:29:22.596Z,483.75
2018-04-22T09:30:22.640Z,483.75
2018-04-22T09:31:22.684Z,489.38
2018-04-22T09:32:22.729Z,500.63
2018-04-22T09:33:22.777Z,500.63
2018-04-22T09:34:22.820Z,506.25
2018-04-22T09:35:22.865Z,506.25
2018-04-22T09:36:22.911Z,523.13
2018-04-22T09:37:22.955Z,540.00
2018-04-22T09:38:23.007Z,562.50
2018-04-22T09:39:23.045Z,635.63
2018-04-22T09:40:23.092Z,984.38
2018-04-22T09:41:23.141Z,1524.38
2018-04-22T09:42:23.184Z,1940.63
2018-04-22T09:43:23.230Z,1951.88
2018-04-22T09:44:23.276Z,2002.50
2018-04-22T09:45:23.324Z,1929.38
2018-04-22T09:46:23.372Z,1929.38
2018-04-22T09:47:23.426Z,2070.00
2018-04-22T09:48:23.472Z,2306.25
2018-04-22T09:49:23.516Z,2205.00
2018-04-22T09:50:23.564Z,2148.75
2018-04-22T09:51:23.614Z,2283.75
2018-04-22T09:52:23.667Z,2317.50
2018-04-22T09:53:23.758Z,2390.63
2018-04-22T09:54:23.765Z,2486.25
2018-04-22T09:55:23.815Z,2362.50
2018-04-22T09:56:23.867Z,2261.25
2018-04-22T09:57:23.918Z,2328.75
2018-04-22T09:58:23.969Z,2362.50
2018-04-22T09:59:24.022Z,2334.38
2018-04-22T10:00:24.074Z,2272.50
2018-04-22T10:01:24.127Z,2233.13
2018-04-22T10:02:24.181Z,2469.38
2018-04-22T10:03:24.231Z,2520.00
2018-04-22T10:04:24.285Z,2497.50
2018-04-22T10:05:24.338Z,2542.50
2018-04-22T10:06:24.392Z,2508.75
2018-04-22T10:07:24.452Z,2514.38
2018-04-22T10:08:24.499Z,2317.50
2018-04-22T10:09:24.554Z,2244.38
2018-04-22T10:10:24.611Z,2446.88
2018-04-22T10:11:24.662Z,2278.13
2018-04-22T10:12:24.718Z,2227.50
2018-04-22T10:13:24.771Z,2351.25
2018-04-22T10:14:24.828Z,2430.00
2018-04-22T10:15:24.881Z,2250.00
2018-04-22T10:16:24.939Z,2266.88
2018-04-22T10:17:24.993Z,2295.00
2018-04-22T10:18:25.049Z,2368.13
2018-04-22T10:19:25.103Z,2520.00
2018-04-22T10:20:25.160Z,2266.88
2018-04-22T10:21:25.215Z,2328.75
2018-04-22T10:22:25.272Z,2469.38
2018-04-22T10:23:25.326Z,2463.75
2018-04-22T10:24:25.383Z,2475.00
2018-04-22T10:25:25.438Z,2536.88
2018-04-22T10:26:25.495Z,2475.00
2018-04-22T10:27:25.551Z,2238.75
2018-04-22T10:28:25.608Z,2328.75
2018-04-22T10:29:25.665Z,2441.25
2018-04-22T10:30:25.720Z,2379.38
2018-04-22T10:31:25.776Z,2311.88
2018-04-22T10:32:25.832Z,2413.13
2018-04-22T10:33:25.890Z,2396.25
2018-04-22T10:34:25.945Z,2435.63
2018-04-22T10:35:26.002Z,2497.50
2018-04-22T10:36:26.059Z,2536.88
2018-04-22T10:37:26.115Z,2497.50
2018-04-22T10:38:26.171Z,2559.38
2018-04-22T10:39:26.227Z,2559.38
2018-04-22T10:40:26.285Z,2289.38
2018-04-22T10:41:26.340Z,2351.25
2018-04-22T10:42:26.397Z,2497.50
2018-04-22T10:43:26.453Z,2576.25
2018-04-22T10:44:26.510Z,2587.50
2018-04-22T10:45:26.568Z,2531.25
2018-04-22T10:46:26.624Z,2520.00
2018-04-22T10:47:26.679Z,2621.25
2018-04-22T10:48:26.736Z,2643.75
2018-04-22T10:49:26.792Z,2587.50
2018-04-22T10:50:26.849Z,2598.75
2018-04-22T10:51:26.911Z,2660.63
2018-04-22T10:52:26.963Z,2795.63
2018-04-22T10:53:27.019Z,2739.38
2018-04-22T10:54:27.078Z,2778.75
2018-04-22T10:55:27.134Z,2801.25
2018-04-22T10:56:27.192Z,2745.00
2018-04-22T10:57:27.248Z,2778.75
2018-04-22T10:58:27.305Z,2773.13
2018-04-22T10:59:27.364Z,2711.25
2018-04-22T11:00:27.420Z,2677.50
2018-04-22T11:01:27.478Z,2683.13
2018-04-22T11:02:27.535Z,2795.63
2018-04-22T11:03:27.592Z,2790.00
2018-04-22T11:04:27.651Z,2829.38
2018-04-22T11:05:27.708Z,2868.75
2018-04-22T11:06:27.766Z,2840.63
2018-04-22T11:07:27.822Z,2626.88
2018-04-22T11:08:27.881Z,2655.00
2018-04-22T11:09:27.939Z,2818.13
2018-04-22T11:10:27.996Z,2795.63
2018-04-22T11:11:28.054Z,2711.25
2018-04-22T11:12:28.111Z,2705.63
2018-04-22T11:13:28.171Z,2677.50
2018-04-22T11:14:28.231Z,2728.13
2018-04-22T11:15:28.286Z,2778.75
2018-04-22T11:16:28.345Z,2604.38
2018-04-22T11:17:28.403Z,2643.75
2018-04-22T11:18:28.460Z,2773.13
2018-04-22T11:19:28.519Z,2739.38
2018-04-22T11:20:28.577Z,2683.13
2018-04-22T11:21:28.637Z,2671.88
2018-04-22T11:22:28.695Z,2874.38
2018-04-22T11:23:28.752Z,2941.88
2018-04-22T11:24:28.811Z,2739.38
2018-04-22T11:25:28.871Z,2739.38
2018-04-22T11:26:28.934Z,2818.13
2018-04-22T11:27:28.986Z,2728.13
2018-04-22T11:28:29.044Z,2964.38
2018-04-22T11:29:29.107Z,2964.38
2018-04-22T11:30:29.162Z,2711.25
2018-04-22T11:31:29.221Z,2981.25
2018-04-22T11:32:29.279Z,3015.00
2018-04-22T11:33:29.338Z,2986.88
2018-04-22T11:34:29.397Z,2958.75
2018-04-22T11:35:29.456Z,2767.50
2018-04-22T11:36:29.515Z,2711.25
2018-04-22T11:37:29.574Z,2694.38
2018-04-22T11:38:29.632Z,2835.00
2018-04-22T11:39:29.692Z,2874.38
2018-04-22T11:40:29.751Z,2913.75
2018-04-22T11:41:29.809Z,2986.88
2018-04-22T11:42:29.869Z,3054.38
2018-04-22T11:43:29.926Z,2953.13
2018-04-22T11:44:29.987Z,2953.13
2018-04-22T11:45:30.047Z,2896.88
2018-04-22T11:46:30.106Z,2902.50
2018-04-22T11:47:30.168Z,2998.13
2018-04-22T11:48:30.227Z,2885.63
2018-04-22T11:49:30.284Z,2835.00
2018-04-22T11:50:30.343Z,2953.13
2018-04-22T11:51:30.402Z,2964.38
2018-04-22T11:52:30.462Z,2970.00
2018-04-22T11:53:30.577Z,3082.50
2018-04-22T11:54:30.581Z,2953.13
2018-04-22T11:55:30.639Z,2986.88
2018-04-22T11:56:30.699Z,2930.63
2018-04-22T11:57:30.759Z,2908.13
2018-04-22T11:58:30.818Z,2930.63
2018-04-22T11:59:30.880Z,3110.63
2018-04-22T12:00:30.937Z,3009.38
2018-04-22T12:01:30.996Z,2868.75
2018-04-22T12:02:31.112Z,2846.25
2018-04-22T12:03:31.113Z,2801.25
2018-04-22T12:04:31.174Z,2694.38
2018-04-22T12:05:31.236Z,2756.25
2018-04-22T12:06:31.298Z,2936.25
2018-04-22T12:07:31.351Z,2857.50
2018-04-22T12:08:31.409Z,2739.38
2018-04-22T12:09:31.470Z,2632.50
2018-04-22T12:10:31.530Z,2660.63
2018-04-22T12:11:31.589Z,2913.75
2018-04-22T12:12:31.650Z,2806.88
2018-04-22T12:13:31.709Z,2784.38
2018-04-22T12:14:31.770Z,2896.88
2018-04-22T12:15:31.828Z,2840.63
2018-04-22T12:16:31.887Z,2756.25
2018-04-22T12:17:31.946Z,2643.75
2018-04-22T12:18:32.005Z,2559.38
2018-04-22T12:19:32.066Z,2688.75
2018-04-22T12:20:32.124Z,2795.63
2018-04-22T12:21:32.186Z,2880.00
2018-04-22T12:22:32.251Z,2913.75
2018-04-22T12:23:32.322Z,2851.88
2018-04-22T12:24:32.363Z,2801.25
2018-04-22T12:25:32.422Z,2801.25
2018-04-22T12:26:32.482Z,2660.63
2018-04-22T12:27:32.541Z,2643.75
2018-04-22T12:28:32.599Z,2649.38
2018-04-22T12:29:32.659Z,2711.25
2018-04-22T12:30:32.720Z,2767.50
2018-04-22T12:31:32.779Z,2671.88
2018-04-22T12:32:32.838Z,2469.38
2018-04-22T12:33:32.898Z,2525.63
2018-04-22T12:34:32.958Z,2649.38
2018-04-22T12:35:33.016Z,2655.00
2018-04-22T12:36:33.077Z,2705.63
2018-04-22T12:37:33.137Z,2835.00
2018-04-22T12:38:33.196Z,2851.88
2018-04-22T12:39:33.262Z,2986.88
2018-04-22T12:40:33.314Z,2964.38
2018-04-22T12:41:33.375Z,2919.38